Latest Weather Observations for Portland Airport

IDV60801

Issued at 11:22 pm EST Saturday 25 May 2019 (issued every 10 minutes, with the page automatically refreshed every 10 minutes)

About weather observations | Map of weather stations | Latest weather observations for VIC | Other Formats
Station Details ID: 090171 Name: CASHMORE AIRPORT Lat: -38.31 Lon: 141.47 Height: 80.9 m
Data from the previous 72 hours. | See also: Recent months at Portland Airport
Date/Time
EST
Temp
°C
App
Temp
°C
Dew
Point
°C
Rel
Hum
%
Delta-T
°C
Wind Press
QNH
hPa
Press
MSL
hPa
Rain since
9am
mm
Dir  Spd
km/h
Gust
km/h
Spd
kts
Gust
kts
25/11:12pm 10.6 4.3 7.3 80 1.6 W 30 52 16 28 1012.5 1012.5 2.4
25/11:10pm 10.4 4.0 7.1 80 1.6 W 30 41 16 22 1012.6 1012.6 2.4
25/11:00pm 10.1 1.9 6.4 78 1.7 W 39 59 21 32 1012.6 1012.6 2.4
25/10:56pm 9.9 1.6 6.1 77 1.8 W 39 59 21 32 1012.6 1012.6 2.4
25/10:43pm 11.0 4.1 6.4 73 2.2 W 32 50 17 27 1012.2 1012.3 2.2
25/10:30pm 10.9 3.9 6.8 76 1.9 W 33 43 18 23 1012.2 1012.3 2.2
25/10:00pm 10.6 2.4 6.6 76 1.9 W 39 59 21 32 1012.5 1012.5 2.2
25/09:32pm 11.0 3.5 6.4 73 2.2 W 35 54 19 29 1012.4 1012.4 2.2
25/09:30pm 11.3 3.5 6.6 73 2.2 W 37 54 20 29 1012.1 1012.2 2.2
25/09:00pm 10.5 3.2 7.2 80 1.6 W 35 56 19 30 1012.1 1012.2 2.2
25/08:52pm 11.3 5.1 8.0 80 1.6 W 30 56 16 30 1011.7 1011.8 2.0
25/08:30pm 10.6 4.7 7.7 82 1.4 W 28 39 15 21 1011.7 1011.8 2.0
25/08:10pm 10.8 4.1 7.3 79 1.7 W 32 50 17 27 1011.8 1011.9 1.8
25/08:00pm 11.1 5.1 7.2 77 1.9 W 28 41 15 22 1011.6 1011.7 1.8
25/07:42pm 10.7 5.5 7.4 80 1.6 W 24 39 13 21 1011.6 1011.7 1.8
25/07:30pm 10.2 2.3 6.4 77 1.8 W 37 57 20 31 1011.5 1011.6 1.8
25/07:23pm 11.3 4.2 6.6 73 2.2 W 33 57 18 31 1011.4 1011.5 1.6
25/07:00pm 12.0 5.2 7.5 74 2.2 W 33 44 18 24 1011.1 1011.2 1.6
25/06:30pm 11.6 5.6 8.6 82 1.5 W 30 39 16 21 1010.7 1010.8 1.6
25/06:11pm 10.9 5.6 8.5 85 1.2 WNW 26 37 14 20 1010.6 1010.7 1.6
25/06:00pm 10.7 4.2 8.1 84 1.3 W 32 46 17 25 1010.6 1010.7 1.6
25/05:51pm 10.4 2.7 7.1 80 1.6 W 37 56 20 30 1010.6 1010.7 1.4
25/05:46pm 12.0 5.9 8.3 78 1.8 WNW 30 54 16 29 1010.4 1010.5 1.0
25/05:30pm 11.5 7.0 8.5 82 1.5 WNW 22 30 12 16 1010.1 1010.2 1.0
25/05:17pm 11.3 5.6 8.3 82 1.5 W 28 46 15 25 1010.1 1010.2 1.0
25/05:00pm 11.7 6.6 9.1 84 1.3 W 26 35 14 19 1010.0 1010.1 1.0
25/04:30pm 11.9 6.1 9.3 84 1.3 W 30 44 16 24 1009.9 1009.9 1.0
25/04:00pm 12.0 5.4 8.7 80 1.6 W 33 50 18 27 1009.8 1009.8 1.0
25/03:51pm 12.3 5.7 7.8 74 2.2 W 32 50 17 27 1009.9 1009.9 1.0
25/03:30pm 13.6 6.9 8.0 69 2.8 W 33 44 18 24 1009.5 1009.5 0.6
25/03:07pm 13.8 7.5 8.8 72 2.5 W 32 50 17 27 1009.4 1009.4 0.6
25/03:00pm 13.7 6.8 9.0 73 2.4 W 35 46 19 25 1009.4 1009.4 0.6
25/02:30pm 13.6 6.6 8.4 71 2.6 W 35 50 19 27 1009.4 1009.4 0.6
25/02:01pm 15.5 9.0 9.0 65 3.3 WNW 33 52 18 28 1009.3 1009.3 0.6
25/02:00pm 15.3 8.3 8.5 64 3.5 WNW 35 52 19 28 1009.3 1009.3 0.6
25/01:35pm 14.5 7.6 8.7 68 2.9 W 35 56 19 30 1009.5 1009.5 0.6
25/01:30pm 14.6 8.1 9.0 69 2.9 W 33 48 18 26 1009.6 1009.6 0.6
25/01:00pm 14.3 9.4 9.9 75 2.3 NW 26 39 14 21 1009.9 1009.9 0.6
25/12:30pm 15.0 10.1 9.8 71 2.7 WNW 26 44 14 24 1010.1 1010.2 0.6
25/12:17pm 14.4 9.0 9.6 73 2.5 WNW 28 46 15 25 1010.3 1010.4 0.6
25/12:00pm 14.6 9.2 10.8 78 2.0 WNW 30 44 16 24 1010.6 1010.7 0.6
25/11:30am 13.7 9.2 11.4 86 1.2 WNW 26 39 14 21 1011.0 1011.1 0.6
25/11:10am 14.3 10.5 12.3 88 1.1 WNW 24 35 13 19 1011.1 1011.2 0.6
25/11:00am 14.0 10.5 12.2 89 1.0 WNW 22 32 12 17 1011.1 1011.2 0.6
25/10:43am 13.5 9.1 11.7 89 1.0 NW 26 37 14 20 1011.2 1011.3 0.6
25/10:30am 13.3 10.2 11.5 89 1.0 NW 19 32 10 17 1011.2 1011.3 0.6
25/10:23am 13.3 10.5 11.5 89 1.0 NNW 17 28 9 15 1011.2 1011.3 0.4
25/10:00am 13.7 11.5 12.1 90 0.9 NNW 15 20 8 11 1011.1 1011.2 0.2
25/09:44am 13.1 10.7 11.5 90 0.9 NW 15 24 8 13 1011.4 1011.5 0.2
25/09:31am 12.7 9.8 11.1 90 0.8 NW 17 22 9 12 1011.3 1011.4 0.2
25/09:30am 12.7 9.8 11.1 90 0.8 NW 17 22 9 12 1011.4 1011.5 0.2
25/09:16am 12.7 9.8 11.1 90 0.8 NW 17 28 9 15 1011.4 1011.5 0.2
25/09:05am 12.5 9.0 10.9 90 0.8 NW 20 28 11 15 1011.5 1011.6 0.2
25/09:00am 12.6 8.8 11.0 90 0.8 NNW 22 35 12 19 1011.5 1011.6 0.4
25/08:30am 12.2 8.6 10.6 90 0.8 NNW 20 30 11 16 1011.4 1011.5 0.2
25/08:00am 11.9 8.2 10.3 90 0.8 NNW 20 32 11 17 1011.3 1011.4 0.2
25/07:30am 11.8 8.1 10.2 90 0.8 NNW 20 30 11 16 1011.1 1011.2 0.0
25/07:00am 11.5 8.3 9.8 89 0.9 NNW 17 22 9 12 1011.2 1011.3 0.0
25/06:30am 11.9 8.7 10.0 88 1.0 NNW 17 22 9 12 1011.2 1011.3 0.0
25/06:00am 12.4 9.3 10.3 87 1.1 NNW 17 20 9 11 1011.3 1011.4 0.0
25/05:30am 13.0 10.4 10.7 86 1.2 NNW 15 24 8 13 1011.2 1011.3 0.0
25/05:00am 13.1 9.8 11.0 87 1.1 NW 19 28 10 15 1011.2 1011.3 0.0
25/04:30am 13.2 9.4 11.3 88 1.0 NW 22 32 12 17 1011.1 1011.2 0.0
25/04:00am 13.1 9.3 11.0 87 1.1 NW 22 32 12 17 1011.1 1011.2 0.0
25/03:30am 13.2 8.1 10.7 85 1.3 WNW 28 41 15 22 1011.4 1011.5 0.0
25/03:00am 13.5 8.1 11.0 85 1.3 NW 30 46 16 25 1011.3 1011.4 0.0
25/02:51am 13.6 8.6 11.0 84 1.4 NW 28 46 15 25 1011.4 1011.5 0.0
25/02:30am 13.7 8.0 11.0 84 1.4 NW 32 44 17 24 1011.6 1011.7 0.0
25/02:00am 13.5 9.2 10.9 84 1.4 NW 24 37 13 20 1011.8 1011.9 0.0
25/01:30am 13.2 8.9 10.6 84 1.4 NW 24 37 13 20 1011.8 1011.9 0.0
25/01:00am 13.4 9.1 10.8 84 1.4 NW 24 39 13 21 1012.4 1012.4 0.0
25/12:30am 13.0 8.6 10.5 85 1.3 NW 24 37 13 20 1012.7 1012.7 0.0
25/12:00am 12.7 9.1 10.4 86 1.2 NNW 20 28 11 15 1013.1 1013.1 0.0
 
Date/Time
EST
Temp
°C
App
Temp
°C
Dew
Point
°C
Rel
Hum
%
Delta-T
°C
Wind Press
QNH
hPa
Press
MSL
hPa
Rain since
9am
mm
Dir  Spd
km/h
Gust
km/h
Spd
kts
Gust
kts
24/11:30pm 12.7 9.0 10.2 85 1.3 NNW 20 28 11 15 1013.4 1013.4 0.0
24/11:00pm 12.6 8.9 10.1 85 1.3 NNW 20 30 11 16 1013.5 1013.5 0.0
24/10:30pm 12.4 8.8 10.0 85 1.2 NNW 19 28 10 15 1013.8 1013.8 0.0
24/10:00pm 12.4 9.1 9.6 83 1.4 NNW 17 24 9 13 1014.0 1014.0 0.0
24/09:30pm 12.6 9.4 10.0 84 1.3 NNW 17 22 9 12 1014.1 1014.1 0.0
24/09:00pm 12.6 9.8 10.0 84 1.3 NNW 15 24 8 13 1014.2 1014.2 0.0
24/08:30pm 12.5 9.3 10.0 85 1.3 NW 17 22 9 12 1014.2 1014.2 0.0
24/08:00pm 12.0 9.0 9.4 84 1.3 NNW 15 20 8 11 1014.1 1014.1 0.0
24/07:30pm 12.6 9.6 9.4 81 1.6 NNW 15 20 8 11 1014.2 1014.2 0.0
24/07:00pm 13.9 10.3 10.5 80 1.8 NW 20 30 11 16 1014.0 1014.0 0.0
24/06:30pm 14.4 10.4 10.6 78 2.0 WNW 22 30 12 16 1014.0 1014.0 0.0
24/06:00pm 14.4 10.0 10.4 77 2.1 WNW 24 35 13 19 1013.7 1013.7 0.0
24/05:30pm 14.4 9.6 10.2 76 2.2 WNW 26 37 14 20 1013.5 1013.5 0.0
24/05:00pm 14.8 8.9 10.6 76 2.2 WNW 32 44 17 24 1013.3 1013.3 0.0
24/04:30pm 15.2 8.3 10.4 73 2.5 W 37 48 20 26 1013.0 1013.0 0.0
24/04:17pm 15.3 9.2 10.5 73 2.5 W 33 46 18 25 1012.9 1012.9 0.0
24/04:11pm 15.2 9.1 10.6 74 2.4 W 33 52 18 28 1013.0 1013.0 0.0
24/04:00pm 15.5 9.1 12.1 80 1.9 W 37 48 20 26 1012.7 1012.7 0.0
24/03:55pm 15.6 9.6 12.2 80 1.9 W 35 48 19 26 1012.6 1012.6 0.0
24/03:35pm 16.2 10.7 12.4 78 2.1 WNW 33 48 18 26 1012.2 1012.3 0.0
24/03:30pm 16.3 11.0 12.5 78 2.1 WNW 32 43 17 23 1012.2 1012.3 0.0
24/03:00pm 16.6 10.9 12.9 79 2.1 WNW 35 48 19 26 1012.0 1012.1 0.0
24/02:30pm 16.8 11.1 12.9 78 2.2 WNW 35 46 19 25 1011.9 1012.0 0.0
24/02:17pm 17.1 12.0 13.2 78 2.2 WNW 32 50 17 27 1011.7 1011.8 0.0
24/02:00pm 17.1 11.2 12.4 74 2.6 WNW 35 48 19 26 1011.6 1011.7 0.0
24/01:32pm 18.6 12.3 12.4 67 3.5 WNW 37 57 20 31 1011.4 1011.5 0.0
24/01:30pm 18.8 12.5 12.3 66 3.6 WNW 37 54 20 29 1011.3 1011.4 0.0
24/01:06pm 19.0 13.5 12.3 65 3.7 WNW 33 52 18 28 1011.3 1011.4 0.0
24/01:00pm 19.0 13.4 12.0 64 3.9 WNW 33 48 18 26 1011.5 1011.6 0.0
24/12:31pm 19.5 13.4 11.8 61 4.3 NW 35 54 19 29 1011.9 1012.0 0.0
24/12:30pm 19.5 13.0 11.8 61 4.3 NW 37 54 20 29 1011.9 1012.0 0.0
24/12:12pm 19.9 14.2 11.9 60 4.5 NW 33 52 18 28 1012.1 1012.2 0.0
24/12:00pm 19.5 13.8 11.8 61 4.3 NW 33 46 18 25 1012.2 1012.3 0.0
24/11:36am 19.2 14.4 11.7 62 4.1 NNW 28 52 15 28 1012.5 1012.5 0.0
24/11:30am 19.1 14.8 12.1 64 3.9 NNW 26 43 14 23 1012.6 1012.6 0.0
24/11:00am 17.9 13.0 12.4 70 3.1 NNW 30 44 16 24 1013.0 1013.0 0.0
24/10:30am 16.1 12.4 12.8 81 1.8 NNW 24 32 13 17 1013.5 1013.5 0.0
24/10:00am 15.1 11.5 13.0 87 1.2 NNW 24 39 13 21 1014.0 1014.0 0.0
24/09:30am 14.1 11.1 12.7 91 0.8 N 20 28 11 15 1014.1 1014.1 0.0
24/09:00am 12.8 10.0 11.5 92 0.7 N 17 24 9 13 1014.3 1014.3 1.0
24/08:30am 12.0 8.7 10.9 93 0.6 N 19 26 10 14 1014.5 1014.5 1.0
24/08:00am 11.7 9.4 10.6 93 0.6 N 13 20 7 11 1014.8 1014.8 0.8
24/07:30am 11.4 8.7 10.5 94 0.5 NNE 15 19 8 10 1015.3 1015.3 0.8
24/07:00am 11.7 9.9 10.8 94 0.5 NNE 11 17 6 9 1015.8 1015.8 0.8
24/06:30am 11.8 10.4 10.9 94 0.5 NNE 9 13 5 7 1016.3 1016.3 0.4
24/06:21am 11.8 10.4 10.9 94 0.5 N 9 13 5 7 1016.3 1016.3 0.4
24/06:00am 11.4 10.3 10.5 94 0.5 N 7 11 4 6 1016.5 1016.5 0.2
24/05:55am 11.3 10.1 10.4 94 0.5 NNW 7 9 4 5 1016.5 1016.5 0.2
24/05:30am 11.0 9.0 10.1 94 0.5 N 11 15 6 8 1016.2 1016.2 0.2
24/05:00am 10.8 8.7 9.9 94 0.5 N 11 15 6 8 1016.4 1016.4 0.2
24/04:30am 10.5 8.0 9.6 94 0.5 NNE 13 17 7 9 1016.4 1016.4 0.2
24/04:00am 10.2 7.9 9.1 93 0.5 N 11 13 6 7 1017.0 1017.0 0.2
24/03:30am 10.2 8.9 9.1 93 0.5 NNE 6 13 3 7 1016.7 1016.7 0.2
24/03:00am 10.4 7.8 9.3 93 0.5 N 13 15 7 8 1017.2 1017.2 0.2
24/02:30am 10.5 8.3 9.4 93 0.6 N 11 15 6 8 1017.5 1017.5 0.2
24/02:00am 11.0 8.6 9.9 93 0.6 NNE 13 17 7 9 1017.1 1017.1 0.2
24/01:52am 11.1 8.7 10.0 93 0.6 N 13 17 7 9 1017.3 1017.3 0.2
24/01:30am 11.2 9.9 10.0 92 0.6 NNE 7 9 4 5 1017.7 1017.7 0.2
24/01:00am 11.7 11.1 10.4 92 0.7 W 4 7 2 4 1018.3 1018.3 0.2
24/12:30am 12.5 11.2 11.2 92 0.7 W 9 11 5 6 1018.7 1018.7 0.2
24/12:00am 13.1 10.4 11.8 92 0.7 W 17 19 9 10 1019.0 1019.0 0.2
 
Date/Time
EST
Temp
°C
App
Temp
°C
Dew
Point
°C
Rel
Hum
%
Delta-T
°C
Wind Press
QNH
hPa
Press
MSL
hPa
Rain since
9am
mm
Dir  Spd
km/h
Gust
km/h
Spd
kts
Gust
kts
23/11:30pm 13.6 11.5 12.3 92 0.7 W 15 19 8 10 1019.2 1019.2 0.2
23/11:00pm 12.8 10.8 11.4 91 0.7 W 13 15 7 8 1019.2 1019.2 0.2
23/10:30pm 12.8 10.8 11.4 91 0.7 W 13 15 7 8 1019.2 1019.2 0.2
23/10:00pm 13.0 11.0 11.6 91 0.7 W 13 15 7 8 1019.2 1019.2 0.2
23/09:30pm 12.2 10.7 10.6 90 0.8 W 9 13 5 7 1019.0 1019.0 0.2
23/09:00pm 11.8 9.8 10.0 89 0.9 W 11 13 6 7 1019.2 1019.2 0.2
23/08:56pm 11.9 9.5 10.1 89 0.9 W 13 13 7 7 1019.2 1019.2 0.2
23/08:30pm 11.9 9.5 10.1 89 0.9 W 13 15 7 8 1019.3 1019.3 0.2
23/08:24pm 11.6 9.2 9.9 89 0.9 W 13 15 7 8 1019.3 1019.3 0.2
23/08:00pm 12.3 11.1 10.4 88 1.0 WNW 7 11 4 6 1019.1 1019.1 0.2
23/07:30pm 11.4 9.2 9.5 88 1.0 W 11 13 6 7 1019.1 1019.1 0.2
23/07:00pm 11.9 10.7 9.6 86 1.2 WNW 6 7 3 4 1019.0 1019.0 0.2
23/06:30pm 11.8 10.4 9.4 85 1.2 WSW 7 9 4 5 1019.3 1019.3 0.2
23/06:17pm 12.9 11.7 10.3 84 1.3 W 7 7 4 4 1019.2 1019.2 0.2
23/06:00pm 13.3 12.2 10.7 84 1.4 W 7 7 4 4 1019.1 1019.1 0.2
23/05:30pm 13.6 12.6 10.4 81 1.7 WSW 6 7 3 4 1019.2 1019.2 0.2
23/05:00pm 14.6 13.1 10.6 77 2.1 WSW 9 9 5 5 1019.3 1019.3 0.2
23/04:30pm 15.9 14.9 11.1 73 2.6 WSW 7 9 4 5 1019.3 1019.3 0.2
23/04:00pm 16.7 15.4 11.4 71 2.9 SW 9 11 5 6 1019.4 1019.4 0.2
23/03:30pm 18.2 17.2 12.4 69 3.2 W 9 11 5 6 1019.4 1019.4 0.2
23/03:00pm 17.7 16.5 11.7 68 3.3 NW 9 17 5 9 1019.5 1019.5 0.2
23/02:30pm 17.9 16.7 11.5 66 3.5 WNW 9 15 5 8 1019.7 1019.7 0.2
23/02:00pm 18.9 17.9 12.4 66 3.6 W 9 15 5 8 1020.1 1020.1 0.2
23/01:30pm 18.2 17.6 13.5 74 2.7 WSW 9 13 5 7 1020.5 1020.6 0.2
23/01:00pm 18.3 17.9 16.3 88 1.2 NNW 13 19 7 10 1021.1 1021.2 0.2
23/12:30pm 16.3 15.8 15.0 92 0.8 N 11 17 6 9 1021.7 1021.8 0.2
23/12:00pm 14.3 12.9 13.3 94 0.6 N 13 15 7 8 1022.4 1022.5 0.2
23/11:43am 14.1 13.8 13.3 95 0.4 NNE 7 11 4 6 1022.7 1022.8 0.0
23/11:34am 13.6 13.1 12.8 95 0.4 NNE 7 9 4 5 1023.0 1023.1 0.0
23/11:30am 13.5 13.0 12.7 95 0.4 NNE 7 9 4 5 1023.0 1023.1 0.0
23/11:00am 12.1 11.2 11.2 94 0.5 NNE 7 9 4 5 1023.8 1023.9 0.0
23/10:30am 11.8 11.4 11.0 95 0.4 N 4 7 2 4 1024.2 1024.3 0.0
23/10:00am 10.3 8.5 9.4 94 0.4 NNW 9 13 5 7 1024.4 1024.5 0.0
23/09:30am 9.7 8.1 8.8 94 0.4 NNE 7 11 4 6 1024.4 1024.5 0.0
23/09:00am 9.3 7.6 8.4 94 0.4 NNE 7 11 4 6 1024.7 1024.8 0.2
23/08:30am 8.9 7.1 8.0 94 0.4 NNE 7 9 4 5 1024.6 1024.7 0.2
23/08:00am 7.1 5.1 6.2 94 0.4 NNE 6 9 3 5 1024.8 1024.9 0.2
23/07:30am 7.7 5.6 6.8 94 0.4 N 7 9 4 5 1024.5 1024.6 0.2
23/07:00am 7.6 5.7 6.7 94 0.4 N 6 9 3 5 1024.7 1024.8 0.2
23/06:30am 6.4 5.4 5.5 94 0.4 CALM 0 0 0 0 1024.7 1024.8 0.2
23/06:28am 6.4 5.4 5.5 94 0.4 CALM 0 0 0 0 1024.7 1024.8 0.2
23/06:00am 7.3 6.0 6.2 93 0.5 N 2 7 1 4 1024.7 1024.8 0.2
23/05:30am 7.8 5.8 6.9 94 0.4 NNW 7 9 4 5 1024.7 1024.8 0.2
23/05:00am 7.7 5.3 6.8 94 0.4 N 9 11 5 6 1024.6 1024.7 0.2
23/04:33am 7.5 5.0 6.6 94 0.4 N 9 11 5 6 1024.7 1024.8 0.2
23/04:30am 7.7 5.3 6.8 94 0.4 N 9 11 5 6 1024.7 1024.8 0.2
23/04:00am 8.3 5.6 7.2 93 0.5 N 11 15 6 8 1024.9 1025.0 0.2
23/03:59am 8.3 5.6 7.2 93 0.5 N 11 15 6 8 1024.9 1025.0 0.2
23/03:30am 9.4 7.3 8.3 93 0.5 N 9 11 5 6 1025.4 1025.4 0.2
23/03:00am 9.4 7.3 8.3 93 0.5 NNW 9 11 5 6 1025.7 1025.7 0.2
23/02:36am 10.4 8.6 9.3 93 0.5 N 9 13 5 7 1025.9 1025.9 0.2
23/02:30am 10.5 8.7 9.4 93 0.6 N 9 13 5 7 1025.9 1025.9 0.2
23/02:29am 10.6 8.8 9.5 93 0.6 N 9 13 5 7 1025.9 1025.9 0.2
23/02:09am 10.6 8.8 9.5 93 0.6 N 9 11 5 6 1026.0 1026.0 0.2
23/02:00am 10.7 8.9 9.6 93 0.6 N 9 11 5 6 1026.0 1026.0 0.2
23/01:45am 10.4 8.6 9.3 93 0.5 N 9 11 5 6 1026.1 1026.1 0.2
23/01:30am 10.6 8.8 9.5 93 0.6 NNW 9 13 5 7 1026.2 1026.2 0.2
23/01:00am 9.7 7.7 8.5 92 0.6 NNW 9 11 5 6 1026.5 1026.5 0.2
23/12:30am 9.7 7.3 8.5 92 0.6 N 11 13 6 7 1026.5 1026.5 0.0
23/12:00am 10.7 8.9 9.3 91 0.7 N 9 11 5 6 1026.6 1026.6 0.0
 
Date/Time
EST
Temp
°C
App
Temp
°C
Dew
Point
°C
Rel
Hum
%
Delta-T
°C
Wind Press
QNH
hPa
Press
MSL
hPa
Rain since
9am
mm
Dir  Spd
km/h
Gust
km/h
Spd
kts
Gust
kts
22/11:58pm 10.7 8.9 9.3 91 0.7 N 9 11 5 6 1026.7 1026.7 0.0
22/11:53pm 10.9 9.1 9.5 91 0.7 N 9 11 5 6 1026.7 1026.7 0.0
22/11:30pm 10.7 8.9 9.3 91 0.7 N 9 11 5 6 1026.9 1026.9 0.0

Other formats

Comma delimited format used in spreadsheet applications
http://www.bom.gov.au/fwo/IDV60801/IDV60801.94828.axf

JavaScript Object Notation format (JSON) in row-major order
http://www.bom.gov.au/fwo/IDV60801/IDV60801.94828.json

Data quality

Most of these data are generated automatically and are frequently updated. Quality checks on data are not normally performed. It is possible for incorrect values to appear. Refer to information at About Latest Weather Observations and please check the disclaimer before using these data.